Time;durP1;ratioP1;P1;durP2;ratioP2;P2;SDS_P1;SDS_P2;PMS_P1;PMS_P2;Temp;Humidity;BMP_temperature;BMP_pressure;BME280_temperature;BME280_humidity;BME280_pressure;Samples;Min_cycle;Max_cycle;Signal;HPM_P1;HPM_P2
2021/03/11 00:01:20;;;;;;;74.73;32.40;;;;;;;-5.33;61.60;99309.64;2161311;82;21288;-76
2021/03/11 00:04:21;;;;;;;73.53;32.70;;;;;;;-5.39;61.68;99305.33;2161898;82;21119;-77
2021/03/11 00:07:22;;;;;;;84.73;35.37;;;;;;;-5.45;61.78;99290.84;2162240;82;21276;-77
2021/03/11 00:10:23;;;;;;;86.80;35.17;;;;;;;-5.49;62.35;99282.07;2162375;82;21373;-77
2021/03/11 00:13:27;;;;;;;86.57;36.10;;;;;;;-5.46;62.46;99287.79;2161949;82;21122;-77
2021/03/11 00:16:28;;;;;;;80.93;38.97;;;;;;;-5.41;62.54;99289.44;2162373;82;21124;-76
2021/03/11 00:19:33;;;;;;;74.67;34.87;;;;;;;-5.35;62.53;99277.20;2162227;82;21079;-77
2021/03/11 00:22:34;;;;;;;80.65;35.30;;;;;;;-5.31;62.47;99276.30;2162275;82;21266;-77
2021/03/11 00:25:35;;;;;;;79.43;35.80;;;;;;;-5.29;62.45;99281.52;2161709;82;21253;-76
2021/03/11 00:28:36;;;;;;;83.43;36.97;;;;;;;-5.29;62.25;99277.31;2162126;82;21237;-76
2021/03/11 00:31:40;;;;;;;79.67;34.43;;;;;;;-5.31;62.37;99271.21;2160974;82;21126;-77
2021/03/11 00:34:41;;;;;;;82.03;33.30;;;;;;;-5.32;62.33;99266.89;2161057;82;21245;-77
2021/03/11 00:37:42;;;;;;;76.43;36.23;;;;;;;-5.38;62.05;99266.39;2164406;82;21161;-76
2021/03/11 00:40:43;;;;;;;76.67;34.37;;;;;;;-5.43;62.36;99265.14;2178807;81;21421;-76
2021/03/11 00:43:44;;;;;;;79.17;32.13;;;;;;;-5.43;62.23;99258.78;2179063;81;21126;-76
2021/03/11 00:46:45;;;;;;;78.80;35.37;;;;;;;-5.48;62.25;99260.95;2179108;81;21126;-77
2021/03/11 00:49:46;;;;;;;82.23;35.20;;;;;;;-5.54;62.08;99257.03;2178234;82;21149;-76
2021/03/11 00:52:47;;;;;;;76.43;34.57;;;;;;;-5.62;62.30;99263.16;2178830;81;21105;-77
2021/03/11 00:55:48;;;;;;;72.80;32.10;;;;;;;-5.65;62.39;99259.98;2179312;81;21126;-77
2021/03/11 00:58:49;;;;;;;82.77;34.90;;;;;;;-5.71;62.45;99257.32;2179081;81;21416;-76
2021/03/11 01:01:50;;;;;;;291.03;49.97;;;;;;;-5.73;62.38;99259.73;2178547;81;21169;-77
2021/03/11 01:04:51;;;;;;;93.83;38.07;;;;;;;-5.80;62.80;99254.54;2178485;81;21118;-77
2021/03/11 01:07:52;;;;;;;98.73;37.77;;;;;;;-5.85;63.02;99254.55;2178192;81;21534;-76
2021/03/11 01:10:53;;;;;;;83.53;37.67;;;;;;;-5.89;63.10;99258.88;2177537;81;21180;-77
2021/03/11 01:13:54;;;;;;;93.57;38.60;;;;;;;-5.94;63.22;99262.73;2178375;81;21122;-77
2021/03/11 01:16:55;;;;;;;94.63;40.57;;;;;;;-5.99;63.40;99252.94;2178702;81;21395;-76
2021/03/11 01:19:56;;;;;;;89.13;38.93;;;;;;;-6.01;63.60;99250.66;2178659;81;21149;-77
2021/03/11 01:22:57;;;;;;;96.90;39.80;;;;;;;-6.02;63.67;99254.85;2179470;81;21118;-77
2021/03/11 01:25:58;;;;;;;93.47;38.90;;;;;;;-6.03;63.72;99260.70;2178273;81;21435;-77
2021/03/11 01:29:00;;;;;;;91.03;39.13;;;;;;;-6.08;63.62;99259.40;2177993;81;21380;-77
2021/03/11 01:32:01;;;;;;;91.33;40.07;;;;;;;-6.14;63.83;99258.89;2178417;82;21137;-77
2021/03/11 01:35:02;;;;;;;90.77;40.27;;;;;;;-6.18;63.91;99240.34;2178309;82;21098;-77
2021/03/11 01:38:05;;;;;;;90.80;39.77;;;;;;;-6.18;64.08;99236.53;2174539;81;21138;-77
2021/03/11 01:41:06;;;;;;;117.87;40.53;;;;;;;-6.17;64.27;99223.95;2160909;82;21245;-77
2021/03/11 01:44:07;;;;;;;92.90;39.10;;;;;;;-6.17;64.25;99221.79;2161767;82;21241;-77
2021/03/11 01:47:08;;;;;;;229.00;49.90;;;;;;;-6.15;63.99;99215.19;2161974;82;21166;-77
2021/03/11 01:50:09;;;;;;;110.63;38.23;;;;;;;-6.15;63.97;99214.80;2162243;82;21269;-77
2021/03/11 01:53:10;;;;;;;116.10;41.50;;;;;;;-6.12;63.47;99212.89;2162155;82;21131;-77
2021/03/11 01:56:11;;;;;;;94.53;37.63;;;;;;;-6.14;63.33;99214.42;2162043;82;21250;-76
2021/03/11 01:59:12;;;;;;;92.27;41.03;;;;;;;-6.15;63.08;99215.19;2161822;82;21265;-77
2021/03/11 02:02:14;;;;;;;154.93;42.17;;;;;;;-6.20;63.39;99210.99;2161789;82;21542;-76
2021/03/11 02:05:15;;;;;;;94.83;40.50;;;;;;;-6.23;63.31;99208.58;2160907;82;21300;-76
2021/03/11 02:08:16;;;;;;;97.67;39.30;;;;;;;-6.23;63.87;99208.58;2162018;82;21233;-76
2021/03/11 02:11:17;;;;;;;127.00;43.87;;;;;;;-6.25;63.87;99197.41;2161431;82;21256;-76
2021/03/11 02:14:18;;;;;;;98.73;41.20;;;;;;;-6.26;64.03;99191.81;2160433;82;22055;-76
2021/03/11 02:17:19;;;;;;;103.70;43.00;;;;;;;-6.24;63.87;99187.75;2159784;82;21241;-76
2021/03/11 02:20:21;;;;;;;133.87;43.63;;;;;;;-6.25;63.77;99183.43;2160724;82;21575;-77
2021/03/11 02:23:22;;;;;;;99.03;41.60;;;;;;;-6.26;63.73;99182.55;2160760;82;21404;-77
2021/03/11 02:26:23;;;;;;;100.80;42.23;;;;;;;-6.25;63.74;99175.42;2161271;82;21281;-77
2021/03/11 02:29:24;;;;;;;103.40;43.83;;;;;;;-6.23;64.00;99173.90;2161761;82;21111;-77
2021/03/11 02:32:26;;;;;;;494.73;74.97;;;;;;;-6.21;64.01;99169.83;2162180;82;21390;-77
2021/03/11 02:35:29;;;;;;;163.90;47.47;;;;;;;-6.22;63.95;99168.44;2161053;82;21545;-77
2021/03/11 02:38:30;;;;;;;103.03;42.33;;;;;;;-6.17;64.18;99161.70;2160556;81;21260;-76
2021/03/11 02:41:31;;;;;;;96.17;42.37;;;;;;;-6.18;64.04;99150.14;2160699;82;21262;-77
2021/03/11 02:44:32;;;;;;;104.57;44.10;;;;;;;-6.21;63.81;99149.89;2159813;82;21281;-76
2021/03/11 02:47:33;;;;;;;95.40;39.97;;;;;;;-6.23;63.96;99146.34;2159579;82;21606;-76
2021/03/11 02:50:34;;;;;;;95.93;41.20;;;;;;;-6.24;64.10;99132.75;2161053;82;21119;-76
2021/03/11 02:53:36;;;;;;;92.43;40.70;;;;;;;-6.25;64.17;99121.19;2161938;82;21126;-77
2021/03/11 02:56:37;;;;;;;99.30;40.37;;;;;;;-6.31;64.12;99116.50;2161807;82;21257;-78
2021/03/11 02:59:38;;;;;;;90.33;38.07;;;;;;;-6.34;64.50;99116.63;2160506;82;21284;-77
2021/03/11 03:02:39;;;;;;;100.80;40.67;;;;;;;-6.30;64.82;99110.66;2161062;82;21162;-77
2021/03/11 03:05:40;;;;;;;89.50;39.83;;;;;;;-6.23;65.02;99116.73;2161993;82;21514;-78
2021/03/11 03:08:41;;;;;;;102.63;37.93;;;;;;;-6.18;64.95;99105.29;2162276;82;21127;-78
2021/03/11 03:11:42;;;;;;;98.40;40.37;;;;;;;-6.14;65.14;99110.23;2162072;82;21241;-77
2021/03/11 03:14:43;;;;;;;90.23;40.97;;;;;;;-6.11;64.97;99104.13;2161639;82;21087;-77
2021/03/11 03:17:44;;;;;;;87.63;36.03;;;;;;;-6.10;64.80;99101.71;2161831;82;21103;-77
2021/03/11 03:20:45;;;;;;;88.27;39.53;;;;;;;-6.05;64.88;99101.23;2160575;82;21995;-77
2021/03/11 03:23:47;;;;;;;92.63;40.93;;;;;;;-6.05;64.82;99097.03;2160059;82;21592;-77
2021/03/11 03:26:48;;;;;;;96.97;40.97;;;;;;;-6.03;64.90;99092.95;2161726;82;21297;-77
2021/03/11 03:29:49;;;;;;;102.97;39.20;;;;;;;-6.03;64.65;99090.41;2161913;82;21139;-77
2021/03/11 03:32:50;;;;;;;119.37;42.90;;;;;;;-5.99;64.67;99099.17;2160901;82;21606;-78
2021/03/11 03:35:51;;;;;;;92.77;40.63;;;;;;;-5.96;64.52;99104.50;2161476;82;21396;-77
2021/03/11 03:38:52;;;;;;;81.43;39.23;;;;;;;-5.94;64.50;99112.75;2167169;81;21284;-77
2021/03/11 03:41:53;;;;;;;91.20;39.33;;;;;;;-5.94;64.41;99119.11;2178666;81;21256;-77
2021/03/11 03:44:54;;;;;;;91.23;39.43;;;;;;;-5.94;64.12;99115.67;2178201;81;21126;-76
2021/03/11 03:47:55;;;;;;;95.20;41.13;;;;;;;-5.98;63.94;99122.55;2178473;82;21368;-76
2021/03/11 03:50:56;;;;;;;88.60;40.73;;;;;;;-6.05;63.84;99118.63;2179616;81;21130;-78
2021/03/11 03:54:00;;;;;;;96.30;39.67;;;;;;;-6.12;64.14;99120.14;2179789;82;21228;-77
2021/03/11 03:57:01;;;;;;;99.73;44.13;;;;;;;-6.19;64.56;99112.41;2179373;81;21503;-77
2021/03/11 04:00:02;;;;;;;114.83;41.07;;;;;;;-6.19;64.75;99107.70;2177758;81;21364;-77
2021/03/11 04:03:03;;;;;;;95.10;40.73;;;;;;;-6.20;64.46;99107.20;2178341;81;21394;-77
2021/03/11 04:06:04;;;;;;;90.80;39.47;;;;;;;-6.20;64.46;99099.58;2178827;81;21252;-77
2021/03/11 04:09:05;;;;;;;154.43;45.70;;;;;;;-6.18;64.24;99099.32;2177731;81;21166;-77
2021/03/11 04:12:06;;;;;;;194.33;73.17;;;;;;;-6.21;64.48;99096.53;2179132;81;21129;-77
2021/03/11 04:15:07;;;;;;;105.77;43.87;;;;;;;-6.19;64.67;99098.81;2176969;81;21542;-77
2021/03/11 04:18:08;;;;;;;95.87;41.50;;;;;;;-6.15;64.47;99091.94;2178176;81;21155;-77
2021/03/11 04:21:09;;;;;;;92.30;41.20;;;;;;;-6.16;64.19;99080.89;2178094;81;21090;-77
2021/03/11 04:24:10;;;;;;;95.03;41.33;;;;;;;-6.22;64.19;99081.67;2178163;82;21110;-77
2021/03/11 04:27:11;;;;;;;109.57;39.13;;;;;;;-6.25;64.11;99081.42;2177705;81;21265;-75
2021/03/11 04:30:12;;;;;;;100.97;42.63;;;;;;;-6.31;64.77;99081.31;2178098;81;21387;-77
2021/03/11 04:33:13;;;;;;;98.87;41.33;;;;;;;-6.34;64.93;99073.06;2177672;81;21145;-77
2021/03/11 04:36:14;;;;;;;100.00;43.40;;;;;;;-6.33;64.95;99063.41;2177322;81;21149;-77
2021/03/11 04:39:16;;;;;;;96.93;45.63;;;;;;;-6.29;65.34;99062.00;2170374;81;21308;-77
2021/03/11 04:42:17;;;;;;;102.10;45.67;;;;;;;-6.27;65.23;99061.36;2157960;82;21582;-77
2021/03/11 04:45:18;;;;;;;99.60;43.00;;;;;;;-6.20;65.16;99062.36;2156346;82;21162;-76
2021/03/11 04:48:19;;;;;;;679.90;99.13;;;;;;;-6.14;65.13;99064.50;2155891;82;21273;-78
2021/03/11 04:51:20;;;;;;;129.43;45.80;;;;;;;-6.08;65.30;99064.98;2155575;82;21273;-77
2021/03/11 04:54:21;;;;;;;101.17;44.33;;;;;;;-5.98;64.89;99062.82;2155479;82;21229;-78
2021/03/11 04:57:22;;;;;;;113.77;44.00;;;;;;;-6.01;64.61;99057.50;2154066;82;21269;-77
2021/03/11 05:00:23;;;;;;;101.40;41.43;;;;;;;-6.02;64.62;99066.78;2155057;82;21285;-77
2021/03/11 05:03:24;;;;;;;128.70;45.90;;;;;;;-6.05;64.68;99060.56;2154837;82;21257;-77
2021/03/11 05:06:25;;;;;;;98.60;42.83;;;;;;;-6.12;64.64;99054.07;2154067;82;21305;-77
2021/03/11 05:09:26;;;;;;;109.30;45.00;;;;;;;-6.15;64.67;99048.75;2154343;82;21524;-77
2021/03/11 05:12:27;;;;;;;116.60;43.77;;;;;;;-6.17;64.66;99040.11;2155511;82;21264;-77
2021/03/11 05:15:28;;;;;;;98.93;43.07;;;;;;;-6.17;64.74;99038.84;2156110;82;21238;-77
2021/03/11 05:18:30;;;;;;;105.47;44.90;;;;;;;-6.17;64.99;99034.65;2155577;82;21552;-77
2021/03/11 05:21:32;;;;;;;104.67;40.00;;;;;;;-6.11;65.05;99035.14;2154607;82;21304;-78
2021/03/11 05:24:33;;;;;;;98.87;41.80;;;;;;;-6.02;64.98;99024.84;2154737;82;22167;-77
2021/03/11 05:27:34;;;;;;;102.53;45.53;;;;;;;-5.93;65.08;99023.02;2155412;82;21986;-77
2021/03/11 05:30:35;;;;;;;94.17;43.67;;;;;;;-5.85;64.98;99015.57;2155649;82;21385;-77
2021/03/11 05:33:36;;;;;;;104.77;44.70;;;;;;;-5.75;64.85;99012.47;2156142;82;21114;-79
2021/03/11 05:36:37;;;;;;;109.03;45.77;;;;;;;-5.63;64.72;99018.12;2157526;82;21273;-77
2021/03/11 05:39:38;;;;;;;102.67;45.63;;;;;;;-5.51;64.62;99021.60;2157804;81;21289;-77
2021/03/11 05:42:40;;;;;;;110.00;47.93;;;;;;;-5.35;64.49;99009.66;2157930;82;21229;-78
2021/03/11 05:45:41;;;;;;;588.03;277.83;;;;;;;-4.55;75.18;99000.84;2157610;82;21289;-80
2021/03/11 05:48:42;;;;;;;222.10;85.37;;;;;;;0.83;75.90;98971.11;2156062;82;21715;-77
2021/03/11 05:51:44;;;;;;;91.97;44.87;;;;;;;4.78;65.33;98955.69;2156073;82;21237;-77
2021/03/11 05:54:45;;;;;;;279.70;57.03;;;;;;;3.69;51.70;98958.77;2156181;82;22078;-77
2021/03/11 05:57:46;;;;;;;89.97;43.70;;;;;;;1.57;50.84;98954.34;2155365;82;21395;-78
2021/03/11 06:00:47;;;;;;;97.37;46.30;;;;;;;0.16;51.17;98957.27;2155463;82;21273;-77
2021/03/11 06:03:48;;;;;;;94.13;45.40;;;;;;;-0.74;52.49;98958.21;2155691;82;21119;-77
2021/03/11 06:06:49;;;;;;;94.03;47.83;;;;;;;-1.26;53.59;98949.13;2155398;82;21284;-77
2021/03/11 06:09:51;;;;;;;101.40;48.23;;;;;;;-1.55;54.08;98947.78;2155799;82;21265;-77
2021/03/11 06:12:52;;;;;;;104.07;47.53;;;;;;;-1.75;54.74;98937.18;2157003;82;21135;-75
2021/03/11 06:15:53;;;;;;;331.27;62.73;;;;;;;-1.83;55.36;98933.66;2156329;82;21261;-77
2021/03/11 06:18:54;;;;;;;91.30;45.90;;;;;;;-1.86;55.56;98925.41;2156983;82;21273;-76
2021/03/11 06:21:55;;;;;;;111.77;50.67;;;;;;;-1.84;55.63;98919.10;2156363;82;21253;-75
2021/03/11 06:24:57;;;;;;;97.53;45.83;;;;;;;-1.80;55.64;98921.95;2155597;82;21253;-76
2021/03/11 06:27:59;;;;;;;85.03;41.63;;;;;;;-1.73;55.59;98919.39;2155593;82;21783;-77
2021/03/11 06:31:00;;;;;;;79.87;40.10;;;;;;;-1.62;55.51;98913.25;2156043;82;21273;-76
2021/03/11 06:34:01;;;;;;;80.27;40.83;;;;;;;-1.48;55.42;98905.11;2156671;82;21151;-77
2021/03/11 06:37:02;;;;;;;128.60;41.30;;;;;;;-1.35;55.14;98908.89;2156166;82;21158;-77
2021/03/11 06:40:04;;;;;;;95.43;45.73;;;;;;;-1.20;54.72;98903.38;2162813;81;22144;-78
2021/03/11 06:43:06;;;;;;;101.67;48.60;;;;;;;-1.10;54.42;98903.52;2174283;81;21237;-77
2021/03/11 06:46:07;;;;;;;123.23;45.20;;;;;;;-0.94;54.26;98897.60;2173858;81;21311;-77
2021/03/11 06:49:08;;;;;;;96.03;45.03;;;;;;;-0.79;53.93;98892.10;2173754;82;21253;-77
2021/03/11 06:52:09;;;;;;;98.43;46.67;;;;;;;-0.71;53.60;98885.33;2173826;81;21256;-77
2021/03/11 06:55:10;;;;;;;105.50;48.53;;;;;;;-0.65;53.34;98886.95;2174689;81;21265;-77
2021/03/11 06:58:12;;;;;;;92.20;46.13;;;;;;;-0.52;53.48;98879.95;2173873;81;21249;-78
2021/03/11 07:01:13;;;;;;;163.30;55.70;;;;;;;-0.37;53.25;98878.23;2174054;81;21923;-77
2021/03/11 07:04:14;;;;;;;177.20;53.30;;;;;;;-0.33;52.99;98873.34;2173388;81;21273;-77
2021/03/11 07:07:15;;;;;;;106.73;52.30;;;;;;;-0.18;52.84;98864.72;2173964;81;21446;-77
2021/03/11 07:10:16;;;;;;;108.73;51.00;;;;;;;-0.01;52.69;98869.95;2174853;81;21256;-77
2021/03/11 07:13:17;;;;;;;151.07;54.87;;;;;;;0.15;52.77;98862.70;2174209;81;21256;-77
2021/03/11 07:16:19;;;;;;;102.80;49.70;;;;;;;0.27;52.37;98859.89;2173792;81;21146;-77
2021/03/11 07:19:20;;;;;;;107.30;52.60;;;;;;;0.30;51.91;98863.90;2174281;81;21134;-76
2021/03/11 07:22:21;;;;;;;132.33;52.00;;;;;;;0.28;51.86;98854.83;2174480;81;21260;-77
2021/03/11 07:25:22;;;;;;;120.67;63.93;;;;;;;0.34;50.83;98845.69;2173306;81;21292;-76
2021/03/11 07:28:24;;;;;;;108.53;57.10;;;;;;;0.39;51.13;98846.40;2173228;81;21559;-76
2021/03/11 07:31:25;;;;;;;100.73;52.67;;;;;;;0.61;51.70;98849.25;2173995;81;21268;-76
2021/03/11 07:34:26;;;;;;;119.70;50.97;;;;;;;0.89;50.58;98840.39;2173568;81;21575;-77
2021/03/11 07:37:27;;;;;;;135.67;57.27;;;;;;;1.02;50.14;98833.77;2173899;81;21252;-77
2021/03/11 07:40:28;;;;;;;112.67;49.63;;;;;;;1.11;49.84;98825.21;2174417;81;21153;-77
2021/03/11 07:43:29;;;;;;;83.83;43.70;;;;;;;1.47;50.37;98829.94;2175408;81;21252;-77
2021/03/11 07:46:31;;;;;;;84.17;45.93;;;;;;;1.71;49.10;98826.73;2174925;81;22134;-79
2021/03/11 07:49:32;;;;;;;92.23;39.37;;;;;;;1.78;48.52;98819.81;2174146;81;21276;-78
2021/03/11 07:52:33;;;;;;;77.23;40.57;;;;;;;1.82;47.96;98817.45;2174844;81;21170;-78
2021/03/11 07:55:34;;;;;;;74.13;38.93;;;;;;;1.96;47.29;98824.91;2174544;81;21555;-78
2021/03/11 07:58:35;;;;;;;70.17;38.10;;;;;;;1.96;46.95;98814.61;2174069;81;21094;-77
2021/03/11 08:01:36;;;;;;;66.47;35.57;;;;;;;2.08;46.86;98812.59;2174251;81;21770;-78
2021/03/11 08:04:37;;;;;;;82.57;31.27;;;;;;;2.28;46.21;98818.20;2174561;81;21268;-78
2021/03/11 08:07:38;;;;;;;61.73;31.20;;;;;;;2.30;44.31;98814.00;2174201;81;21146;-78
2021/03/11 08:10:39;;;;;;;60.50;30.77;;;;;;;2.24;44.46;98821.05;2173860;81;21281;-77
2021/03/11 08:13:40;;;;;;;62.03;30.00;;;;;;;2.30;44.83;98820.44;2173403;81;21272;-79
2021/03/11 08:16:42;;;;;;;50.83;27.60;;;;;;;2.35;43.58;98809.05;2174461;81;21526;-78
2021/03/11 08:19:43;;;;;;;55.50;29.83;;;;;;;2.35;43.25;98792.30;2173957;81;21154;-78
2021/03/11 08:22:44;;;;;;;49.07;29.20;;;;;;;2.37;43.67;98794.13;2173036;81;21257;-78
2021/03/11 08:25:45;;;;;;;97.33;52.83;;;;;;;2.42;43.04;98775.02;2174071;82;21174;-80
2021/03/11 08:28:46;;;;;;;69.53;33.60;;;;;;;2.45;43.27;98772.16;2172806;81;21117;-77
2021/03/11 08:31:47;;;;;;;56.47;30.80;;;;;;;2.49;43.28;98769.30;2172922;81;21283;-78
2021/03/11 08:34:50;;;;;;;51.80;30.30;;;;;;;2.60;43.16;98768.09;2172870;81;21337;-78
2021/03/11 08:37:51;;;;;;;49.80;29.73;;;;;;;2.67;43.02;98761.08;2172931;81;21291;-78
2021/03/11 08:40:53;;;;;;;54.40;28.57;;;;;;;2.86;42.50;98753.69;2173305;81;21293;-78
2021/03/11 08:43:54;;;;;;;49.60;28.37;;;;;;;3.11;42.86;98748.69;2172398;81;21260;-77
2021/03/11 08:46:56;;;;;;;68.93;30.47;;;;;;;3.32;41.80;98727.13;2171637;81;21397;-78
2021/03/11 08:49:57;;;;;;;146.30;32.07;;;;;;;3.33;42.63;98738.80;2172331;81;21129;-77
2021/03/11 08:53:00;;;;;;;45.80;27.10;;;;;;;3.42;41.34;98726.24;2174083;81;21256;-77
2021/03/11 08:56:01;;;;;;;51.97;27.10;;;;;;;3.49;41.33;98733.84;2173648;82;22109;-77
2021/03/11 08:59:02;;;;;;;55.80;25.93;;;;;;;3.54;41.64;98725.86;2173841;81;21487;-77
2021/03/11 09:02:03;;;;;;;38.77;23.77;;;;;;;3.52;41.42;98719.77;2172551;81;21814;-76
2021/03/11 09:05:04;;;;;;;37.43;21.13;;;;;;;3.61;40.67;98715.35;2172099;81;21386;-78
2021/03/11 09:08:05;;;;;;;34.77;22.57;;;;;;;3.58;40.56;98701.92;2173253;81;21284;-78
2021/03/11 09:11:06;;;;;;;36.30;22.77;;;;;;;3.57;40.95;98700.16;2173854;81;21293;-79
2021/03/11 09:14:09;;;;;;;36.63;21.90;;;;;;;3.67;40.91;98695.80;2173357;81;21292;-77
2021/03/11 09:17:10;;;;;;;31.80;20.17;;;;;;;3.73;40.71;98696.03;2173595;81;21253;-77
2021/03/11 09:20:11;;;;;;;38.07;23.60;;;;;;;3.68;40.29;98689.81;2172431;81;21118;-77
2021/03/11 09:23:12;;;;;;;32.80;21.27;;;;;;;3.86;41.04;98691.30;2171985;81;21317;-77
2021/03/11 09:26:13;;;;;;;39.17;18.43;;;;;;;4.01;40.16;98681.52;2171977;81;21284;-77
2021/03/11 09:29:15;;;;;;;36.67;18.27;;;;;;;4.22;38.94;98677.08;2171537;81;21248;-77
2021/03/11 09:32:16;;;;;;;59.00;38.07;;;;;;;4.28;39.10;98666.95;2171742;81;21528;-77
2021/03/11 09:35:17;;;;;;;30.27;19.27;;;;;;;4.27;38.17;98654.86;2171731;81;21610;-77
2021/03/11 09:38:18;;;;;;;24.07;16.33;;;;;;;4.36;38.81;98646.57;2172622;81;21142;-77
2021/03/11 09:41:19;;;;;;;42.40;19.23;;;;;;;4.43;38.07;98640.77;2172983;81;21292;-77
2021/03/11 09:44:20;;;;;;;29.70;19.17;;;;;;;4.44;38.28;98635.66;2174003;81;21154;-77
2021/03/11 09:47:21;;;;;;;33.87;16.13;;;;;;;4.36;37.60;98631.95;2174471;81;21146;-78
2021/03/11 09:50:23;;;;;;;57.17;19.70;;;;;;;4.33;37.54;98627.94;2174645;81;21293;-77
2021/03/11 09:53:24;;;;;;;27.87;16.93;;;;;;;4.35;37.92;98621.14;2174315;81;21157;-78
2021/03/11 09:56:25;;;;;;;26.97;17.23;;;;;;;4.36;37.35;98613.86;2173920;82;21256;-75
2021/03/11 09:59:26;;;;;;;25.63;17.20;;;;;;;4.42;37.06;98580.45;2173197;81;21110;-77
2021/03/11 10:02:27;;;;;;;34.00;18.37;;;;;;;4.43;37.22;98600.30;2173706;82;21095;-77
2021/03/11 10:05:28;;;;;;;31.50;16.97;;;;;;;4.55;37.70;98604.10;2174068;82;21296;-77
2021/03/11 10:08:29;;;;;;;31.13;16.70;;;;;;;4.60;37.01;98588.33;2173831;81;21221;-77
2021/03/11 10:11:33;;;;;;;32.27;18.20;;;;;;;4.72;37.05;98587.41;2174021;81;21626;-77
2021/03/11 10:14:33;;;;;;;24.83;16.00;;;;;;;4.82;36.87;98575.22;2174486;81;21281;-78
2021/03/11 10:17:34;;;;;;;45.37;26.17;;;;;;;4.89;36.10;98557.76;2174366;81;21149;-77
2021/03/11 10:20:36;;;;;;;49.63;20.40;;;;;;;4.85;36.83;98545.98;2174548;81;22226;-77
2021/03/11 10:23:37;;;;;;;53.40;21.03;;;;;;;4.92;37.36;98549.21;2174335;81;21134;-78
2021/03/11 10:26:39;;;;;;;36.60;19.87;;;;;;;5.06;37.68;98537.55;2174302;81;21197;-77
2021/03/11 10:29:40;;;;;;;33.67;19.17;;;;;;;5.08;37.19;98530.30;2174413;81;21267;-76
2021/03/11 10:32:41;;;;;;;37.37;21.33;;;;;;;4.94;37.51;98532.03;2146992;82;21146;-78
2021/03/11 10:35:44;;;;;;;37.93;22.77;;;;;;;4.82;37.81;98527.38;2173967;81;21094;-77
2021/03/11 10:38:45;;;;;;;80.77;26.13;;;;;;;4.75;38.05;98524.16;2173616;82;21264;-76
2021/03/11 10:41:46;;;;;;;45.40;23.73;;;;;;;4.82;38.82;98517.45;2163051;81;21484;-76
2021/03/11 10:44:47;;;;;;;36.10;22.47;;;;;;;4.79;38.79;98513.06;2157233;82;21276;-77
2021/03/11 10:47:48;;;;;;;31.50;22.00;;;;;;;4.80;38.92;98509.23;2156995;82;21306;-76
2021/03/11 10:50:50;;;;;;;42.43;23.27;;;;;;;4.86;39.23;98508.53;2157121;82;21252;-77
2021/03/11 10:53:51;;;;;;;70.77;24.53;;;;;;;4.94;39.68;98494.52;2156379;82;21103;-76
2021/03/11 10:56:52;;;;;;;96.33;25.50;;;;;;;4.95;39.42;98494.56;2156265;82;21280;-76
2021/03/11 10:59:53;;;;;;;191.10;31.87;;;;;;;5.01;39.70;98489.98;2156392;82;21492;-77
2021/03/11 11:02:54;;;;;;;39.33;21.77;;;;;;;5.00;39.19;98477.47;2156252;82;21264;-77
2021/03/11 11:05:55;;;;;;;40.80;23.53;;;;;;;4.91;39.38;98466.86;2155706;82;21175;-75
2021/03/11 11:08:56;;;;;;;38.70;23.00;;;;;;;4.83;39.61;98464.48;2155638;82;21170;-76
2021/03/11 11:11:57;;;;;;;41.47;23.47;;;;;;;4.82;39.88;98459.27;2155812;82;21301;-77
2021/03/11 11:14:58;;;;;;;42.77;23.83;;;;;;;4.74;39.63;98455.17;2156783;82;21479;-76
2021/03/11 11:17:59;;;;;;;37.03;22.37;;;;;;;4.66;39.57;98443.31;2156946;82;21268;-76
2021/03/11 11:21:01;;;;;;;35.83;21.93;;;;;;;4.61;39.65;98434.55;2156074;82;21618;-77
2021/03/11 11:24:02;;;;;;;56.67;22.03;;;;;;;4.48;39.87;98428.58;2156194;82;21257;-77
2021/03/11 11:27:03;;;;;;;31.83;20.43;;;;;;;4.33;39.95;98423.80;2156114;82;21178;-77
2021/03/11 11:30:04;;;;;;;42.77;21.63;;;;;;;4.31;40.20;98416.42;2156776;82;21256;-77
2021/03/11 11:33:05;;;;;;;37.53;22.63;;;;;;;4.39;40.23;98414.97;2157159;82;21524;-76
2021/03/11 11:36:06;;;;;;;37.83;22.70;;;;;;;4.36;40.22;98401.95;2155626;82;21179;-78
2021/03/11 11:39:08;;;;;;;33.80;21.17;;;;;;;4.40;40.13;98403.80;2155542;82;21312;-77
2021/03/11 11:42:09;;;;;;;89.97;24.70;;;;;;;4.37;40.10;98399.84;2167337;81;21264;-77
2021/03/11 11:45:10;;;;;;;33.17;19.40;;;;;;;4.34;40.15;98390.70;2173328;81;21106;-78
2021/03/11 11:48:11;;;;;;;44.73;22.47;;;;;;;4.38;39.80;98393.84;2172204;81;21265;-76
2021/03/11 11:51:12;;;;;;;37.83;18.63;;;;;;;4.42;40.32;98390.92;2173475;81;21293;-76
2021/03/11 11:54:13;;;;;;;33.60;21.13;;;;;;;4.52;39.76;98381.30;2173287;81;21150;-78
2021/03/11 11:57:14;;;;;;;82.37;42.73;;;;;;;4.54;40.16;98382.64;2171950;81;21479;-76
2021/03/11 12:00:15;;;;;;;100.77;53.53;;;;;;;4.58;40.46;98382.77;2173678;81;21421;-76
2021/03/11 12:03:16;;;;;;;68.67;33.03;;;;;;;4.64;40.29;98389.82;2172568;81;21141;-77
2021/03/11 12:06:17;;;;;;;50.07;27.37;;;;;;;4.66;39.79;98385.56;2173070;81;21319;-77
2021/03/11 12:09:19;;;;;;;51.57;25.50;;;;;;;4.59;40.05;98377.19;2171937;81;21297;-77
2021/03/11 12:12:20;;;;;;;105.63;24.93;;;;;;;4.58;39.96;98369.84;2173420;81;21292;-76
2021/03/11 12:15:22;;;;;;;41.17;21.93;;;;;;;4.52;40.22;98366.22;2173231;81;21622;-77
2021/03/11 12:18:23;;;;;;;269.67;33.23;;;;;;;4.47;40.14;98363.09;2173927;81;21253;-76
2021/03/11 12:21:24;;;;;;;45.07;23.07;;;;;;;4.43;40.29;98361.25;2172581;81;21129;-77
2021/03/11 12:24:25;;;;;;;40.13;21.33;;;;;;;4.27;40.43;98356.45;2172350;81;21582;-77
2021/03/11 12:27:26;;;;;;;85.90;25.33;;;;;;;4.07;40.42;98354.98;2172510;81;21174;-78
2021/03/11 12:30:28;;;;;;;45.50;23.40;;;;;;;3.94;41.07;98348.59;2172534;81;21277;-78
2021/03/11 12:33:29;;;;;;;81.57;25.03;;;;;;;3.86;41.35;98349.19;2173151;81;21264;-77
2021/03/11 12:36:30;;;;;;;42.73;17.30;;;;;;;3.75;41.38;98339.41;2172346;81;21190;-75
2021/03/11 12:39:31;;;;;;;45.63;20.83;;;;;;;3.64;41.46;98353.70;2171880;81;21291;-76
2021/03/11 12:42:32;;;;;;;36.57;21.03;;;;;;;3.59;42.02;98353.09;2170468;81;21182;-76
2021/03/11 12:45:33;;;;;;;52.10;19.63;;;;;;;3.62;42.21;98346.32;2171801;81;21288;-77
2021/03/11 12:48:34;;;;;;;62.60;20.20;;;;;;;3.69;43.17;98342.22;2172525;81;21134;-75
2021/03/11 12:51:36;;;;;;;53.50;20.20;;;;;;;3.66;44.06;98335.27;2172600;81;21146;-79
2021/03/11 12:54:37;;;;;;;66.83;22.67;;;;;;;3.64;44.12;98339.91;2173546;81;21162;-78
2021/03/11 12:57:38;;;;;;;48.60;20.43;;;;;;;3.65;44.91;98328.34;2172132;81;21555;-77
2021/03/11 13:00:39;;;;;;;39.83;18.53;;;;;;;3.70;46.02;98331.95;2171374;81;21110;-75
2021/03/11 13:03:40;;;;;;;56.67;21.83;;;;;;;3.72;46.21;98309.63;2169788;81;21283;-76
2021/03/11 13:06:41;;;;;;;63.00;21.80;;;;;;;3.81;46.46;98317.66;2170318;82;21145;-76
2021/03/11 13:09:42;;;;;;;52.50;20.97;;;;;;;3.83;47.95;98316.41;2170232;81;21304;-77
2021/03/11 13:12:43;;;;;;;49.80;26.53;;;;;;;3.68;51.37;98292.30;2170368;81;21122;-77
2021/03/11 13:15:45;;;;;;;47.10;24.23;;;;;;;3.57;52.22;98289.81;2171389;81;21285;-77
2021/03/11 13:18:48;;;;;;;36.10;21.60;;;;;;;3.49;53.40;98275.39;2171204;82;21166;-77
2021/03/11 13:21:49;;;;;;;34.63;23.13;;;;;;;3.38;53.31;98271.58;2172226;82;21281;-77
2021/03/11 13:24:50;;;;;;;48.20;26.40;;;;;;;3.32;53.67;98262.77;2171289;81;21598;-76
2021/03/11 13:27:51;;;;;;;45.03;25.37;;;;;;;3.30;54.50;98254.98;2172112;81;21170;-76
2021/03/11 13:30:52;;;;;;;45.57;25.20;;;;;;;3.28;55.09;98245.45;2172126;81;21276;-76
2021/03/11 13:33:53;;;;;;;41.97;24.43;;;;;;;3.29;55.80;98222.70;2171282;81;21110;-75
2021/03/11 13:36:54;;;;;;;46.77;25.27;;;;;;;3.30;55.94;98202.52;2172906;81;21515;-76
2021/03/11 13:39:56;;;;;;;38.07;23.07;;;;;;;3.42;55.68;98190.86;2172851;81;21280;-77
2021/03/11 13:43:00;;;;;;;45.53;22.23;;;;;;;3.56;55.70;98169.77;2162070;81;21119;-78
2021/03/11 13:46:00;;;;;;;41.47;20.80;;;;;;;3.70;55.80;98173.20;2156168;81;21329;-76
2021/03/11 13:49:03;;;;;;;35.67;20.97;;;;;;;3.92;56.05;98166.05;2156641;82;21122;-77
2021/03/11 13:52:04;;;;;;;36.20;22.60;;;;;;;4.03;56.59;98162.05;2156895;82;21103;-77
2021/03/11 13:55:05;;;;;;;33.83;21.97;;;;;;;4.05;57.59;98153.92;2156603;82;21130;-77